Ogden, UT

10:59 AM MDT on August 30, 2014 (GMT -0600)
Harrisville 1411 | Change Station
CLOSE
Current Station
Personal Weather Station
Location: Ogden, UT
Elevation: 4310 ft
Nearby Weather Stations

Elev 4310 ft 41.26 °N, 111.98 °W | Updated 4 minutes ago

Mostly Cloudy
Mostly Cloudy
73.7 °F
Feels Like 77 °F
N
8.0
Wind Variable Wind from SSE
Gusts 15.0 mph

Today
High -- | Low -- °F
--% Chance of Precip.
Yesterday
High -- | Low -- °F
Precip. -- in
6:52 AM 8:04 PM
Waxing Crescent, 23% visible
Pressure 29.80 in
Visibility 10.0 miles
Clouds Few 10000 ft
Mostly Cloudy 11000 ft
Heat Index 77 °F
Dew Point 47 °F
Humidity 39%
Rainfall 0.00 in
Snow Depth 1 in
UV 3 out of 12
Pollen 8.60 out of 12
PM2.5 Good
Flu Activity Not available.
METAR KOGD 301653Z 17009KT 10SM FEW100 BKN110 22/08 A2997 RMK AO2 SLP091 T02220078

More Conditions Fewer Conditions

Pressure 29.80 in
Visibility 10.0 miles
Clouds Few 10000 ft
Mostly Cloudy 11000 ft
Heat Index 77 °F
Dew Point 47 °F
Humidity 39%
Rainfall 0.00 in
Snow Depth 1 in
UV 3 out of 12
Pollen 8.60 out of 12
PM2.5 Good
Flu Activity Not available.
METAR KOGD 301653Z 17009KT 10SM FEW100 BKN110 22/08 A2997 RMK AO2 SLP091 T02220078

More Conditions Fewer Conditions

10-Day Weather Forecast

Almanac

Astronomy

Aug. 30, 2014 Rise Set
Actual Time 6:52 AM MDT 8:04 PM MDT
Civil Twilight 6:24 AM MDT 8:32 PM MDT
Nautical Twilight 5:50 AM MDT 9:06 PM MDT
Astronomical Twilight 5:14 AM MDT 9:41 PM MDT
Moon 11:47 AM MDT 10:37 PM MDT
Length of Visible Light 14h 08m
Length of Day
13h 11m
Tomorrow will be 2m 39s shorter.
Waxing Crescent, 23% of the Moon is Illuminated
Today
Waxing Crescent
Sep 2
First Quarter
Sep 8
Full
Sep 15
Last Quarter
Sep 24
New

Today's Extremes

State Highs State Lows

Community

WunderPhotos

Upload Photos

1,748,562 photos uploaded!

WunderBlogs® & News

Nearby

Air Quality

  Air Quality AQ Index Pollutant
Yesterday Good
OZONE
Yesterday Good
PM10
Current Good
PM2.5
Saturday Good
OZONE
Sunday Good
OZONE
Monday Good
OZONE

Snow Depth

Station Depth Elevation
Ben Lomond Trail 1 in 6000 ft
Parrish Creek 0 in 7740 ft
Hardscrabble 0 in 7250 ft
Louis Meadow 0 in 6700 ft
Temple Fork 0 in 7406 ft

Earthquake Activity

City Distance Mag. Time & Date
No recent earthquake activity has been reported nearby.
Minimum magnitude displayed is 2.5.

Coastal Water Temperatures

Place Temperature
No Stations Reporting

Nearby Weather Stations